sensor_id;sensor_type;location;lat;lon;timestamp;P1;durP1;ratioP1;P2;durP2;ratioP2
20559;SDS011;10438;51.454;6.718;2022-09-09T00:00:44;4.83;;;0.83;;
20559;SDS011;10438;51.454;6.718;2022-09-09T00:03:16;4.60;;;1.30;;
20559;SDS011;10438;51.454;6.718;2022-09-09T00:05:51;4.70;;;1.10;;
20559;SDS011;10438;51.454;6.718;2022-09-09T00:11:33;10.07;;;1.80;;
20559;SDS011;10438;51.454;6.718;2022-09-09T00:14:11;4.03;;;1.20;;
20559;SDS011;10438;51.454;6.718;2022-09-09T00:17:06;3.93;;;1.10;;
20559;SDS011;10438;51.454;6.718;2022-09-09T00:22:15;4.40;;;1.20;;
20559;SDS011;10438;51.454;6.718;2022-09-09T00:24:46;4.57;;;1.50;;
20559;SDS011;10438;51.454;6.718;2022-09-09T00:30:15;5.40;;;2.07;;
20559;SDS011;10438;51.454;6.718;2022-09-09T00:32:45;7.03;;;1.90;;
20559;SDS011;10438;51.454;6.718;2022-09-09T00:35:22;6.77;;;1.87;;
20559;SDS011;10438;51.454;6.718;2022-09-09T00:37:52;5.73;;;2.00;;
20559;SDS011;10438;51.454;6.718;2022-09-09T00:40:25;7.13;;;2.10;;
20559;SDS011;10438;51.454;6.718;2022-09-09T00:45:58;6.70;;;2.40;;
20559;SDS011;10438;51.454;6.718;2022-09-09T00:48:37;6.20;;;2.63;;
20559;SDS011;10438;51.454;6.718;2022-09-09T00:55:07;8.77;;;2.50;;
20559;SDS011;10438;51.454;6.718;2022-09-09T01:02:52;6.70;;;1.60;;
20559;SDS011;10438;51.454;6.718;2022-09-09T01:08:46;5.67;;;1.70;;
20559;SDS011;10438;51.454;6.718;2022-09-09T01:11:33;8.03;;;2.20;;
20559;SDS011;10438;51.454;6.718;2022-09-09T01:14:29;7.00;;;2.10;;
20559;SDS011;10438;51.454;6.718;2022-09-09T01:17:12;5.40;;;1.90;;
20559;SDS011;10438;51.454;6.718;2022-09-09T01:27:48;9.27;;;2.57;;
20559;SDS011;10438;51.454;6.718;2022-09-09T01:30:16;6.63;;;2.60;;
20559;SDS011;10438;51.454;6.718;2022-09-09T01:32:44;7.00;;;3.70;;
20559;SDS011;10438;51.454;6.718;2022-09-09T01:37:57;9.93;;;3.40;;
20559;SDS011;10438;51.454;6.718;2022-09-09T01:40:24;8.80;;;3.83;;
20559;SDS011;10438;51.454;6.718;2022-09-09T01:42:50;8.50;;;4.13;;
20559;SDS011;10438;51.454;6.718;2022-09-09T01:45:17;6.47;;;2.80;;
20559;SDS011;10438;51.454;6.718;2022-09-09T01:47:42;8.90;;;2.50;;
20559;SDS011;10438;51.454;6.718;2022-09-09T01:50:10;7.10;;;2.30;;
20559;SDS011;10438;51.454;6.718;2022-09-09T01:52:39;8.23;;;2.77;;
20559;SDS011;10438;51.454;6.718;2022-09-09T01:55:06;5.13;;;2.27;;
20559;SDS011;10438;51.454;6.718;2022-09-09T02:00:31;6.13;;;2.00;;
20559;SDS011;10438;51.454;6.718;2022-09-09T02:05:54;10.27;;;2.40;;
20559;SDS011;10438;51.454;6.718;2022-09-09T02:08:40;8.70;;;2.23;;
20559;SDS011;10438;51.454;6.718;2022-09-09T02:11:14;6.10;;;2.43;;
20559;SDS011;10438;51.454;6.718;2022-09-09T02:13:41;7.17;;;2.43;;
20559;SDS011;10438;51.454;6.718;2022-09-09T02:16:14;8.97;;;3.40;;
20559;SDS011;10438;51.454;6.718;2022-09-09T02:18:52;12.43;;;2.90;;
20559;SDS011;10438;51.454;6.718;2022-09-09T02:21:20;7.00;;;2.80;;
20559;SDS011;10438;51.454;6.718;2022-09-09T02:23:47;9.30;;;2.50;;
20559;SDS011;10438;51.454;6.718;2022-09-09T02:26:17;7.63;;;2.20;;
20559;SDS011;10438;51.454;6.718;2022-09-09T02:28:47;6.57;;;1.77;;
20559;SDS011;10438;51.454;6.718;2022-09-09T02:31:15;5.30;;;1.50;;
20559;SDS011;10438;51.454;6.718;2022-09-09T02:33:46;4.90;;;1.37;;
20559;SDS011;10438;51.454;6.718;2022-09-09T02:36:17;8.93;;;1.40;;
20559;SDS011;10438;51.454;6.718;2022-09-09T02:38:47;6.80;;;1.40;;
20559;SDS011;10438;51.454;6.718;2022-09-09T02:41:15;4.40;;;1.33;;
20559;SDS011;10438;51.454;6.718;2022-09-09T02:43:43;3.33;;;1.43;;
20559;SDS011;10438;51.454;6.718;2022-09-09T02:49:03;8.23;;;1.37;;
20559;SDS011;10438;51.454;6.718;2022-09-09T02:51:56;5.17;;;1.60;;
20559;SDS011;10438;51.454;6.718;2022-09-09T02:54:28;8.00;;;2.23;;
20559;SDS011;10438;51.454;6.718;2022-09-09T02:59:50;8.23;;;2.07;;
20559;SDS011;10438;51.454;6.718;2022-09-09T03:02:17;8.60;;;2.10;;
20559;SDS011;10438;51.454;6.718;2022-09-09T03:04:43;5.37;;;2.00;;
20559;SDS011;10438;51.454;6.718;2022-09-09T03:07:09;13.67;;;2.77;;
20559;SDS011;10438;51.454;6.718;2022-09-09T03:09:37;9.07;;;2.57;;
20559;SDS011;10438;51.454;6.718;2022-09-09T03:12:02;7.07;;;2.07;;
20559;SDS011;10438;51.454;6.718;2022-09-09T03:14:29;8.10;;;1.90;;
20559;SDS011;10438;51.454;6.718;2022-09-09T03:16:55;13.77;;;2.70;;
20559;SDS011;10438;51.454;6.718;2022-09-09T03:19:22;8.33;;;2.27;;
20559;SDS011;10438;51.454;6.718;2022-09-09T03:21:49;7.83;;;2.43;;
20559;SDS011;10438;51.454;6.718;2022-09-09T03:24:15;7.60;;;2.60;;
20559;SDS011;10438;51.454;6.718;2022-09-09T03:26:41;6.97;;;2.13;;
20559;SDS011;10438;51.454;6.718;2022-09-09T03:29:09;10.93;;;2.40;;
20559;SDS011;10438;51.454;6.718;2022-09-09T03:31:37;10.03;;;2.20;;
20559;SDS011;10438;51.454;6.718;2022-09-09T03:34:03;7.60;;;2.20;;
20559;SDS011;10438;51.454;6.718;2022-09-09T03:36:29;12.10;;;2.10;;
20559;SDS011;10438;51.454;6.718;2022-09-09T03:38:55;9.70;;;1.60;;
20559;SDS011;10438;51.454;6.718;2022-09-09T03:41:21;6.87;;;1.70;;
20559;SDS011;10438;51.454;6.718;2022-09-09T03:43:49;6.53;;;1.40;;
20559;SDS011;10438;51.454;6.718;2022-09-09T03:46:18;5.80;;;1.20;;
20559;SDS011;10438;51.454;6.718;2022-09-09T03:48:48;11.03;;;1.50;;
20559;SDS011;10438;51.454;6.718;2022-09-09T03:51:14;8.60;;;1.80;;
20559;SDS011;10438;51.454;6.718;2022-09-09T03:53:41;8.37;;;1.67;;
20559;SDS011;10438;51.454;6.718;2022-09-09T03:56:07;5.73;;;1.27;;
20559;SDS011;10438;51.454;6.718;2022-09-09T03:58:34;6.65;;;1.35;;
20559;SDS011;10438;51.454;6.718;2022-09-09T04:01:05;11.40;;;1.60;;
20559;SDS011;10438;51.454;6.718;2022-09-09T04:03:35;9.20;;;1.77;;
20559;SDS011;10438;51.454;6.718;2022-09-09T04:06:01;7.90;;;1.87;;
20559;SDS011;10438;51.454;6.718;2022-09-09T04:08:28;5.78;;;1.67;;
20559;SDS011;10438;51.454;6.718;2022-09-09T04:10:56;6.27;;;1.60;;
20559;SDS011;10438;51.454;6.718;2022-09-09T04:13:23;9.30;;;1.60;;
20559;SDS011;10438;51.454;6.718;2022-09-09T04:15:52;8.00;;;2.03;;
20559;SDS011;10438;51.454;6.718;2022-09-09T04:18:20;9.15;;;2.10;;
20559;SDS011;10438;51.454;6.718;2022-09-09T04:20:47;8.97;;;1.60;;
20559;SDS011;10438;51.454;6.718;2022-09-09T04:23:16;10.53;;;2.13;;
20559;SDS011;10438;51.454;6.718;2022-09-09T04:25:47;7.60;;;1.55;;
20559;SDS011;10438;51.454;6.718;2022-09-09T04:28:14;7.50;;;2.00;;
20559;SDS011;10438;51.454;6.718;2022-09-09T04:30:40;10.27;;;1.73;;
20559;SDS011;10438;51.454;6.718;2022-09-09T04:33:06;6.05;;;1.52;;
20559;SDS011;10438;51.454;6.718;2022-09-09T04:35:33;6.40;;;1.75;;
20559;SDS011;10438;51.454;6.718;2022-09-09T04:37:59;7.70;;;1.63;;
20559;SDS011;10438;51.454;6.718;2022-09-09T04:40:24;6.72;;;1.50;;
20559;SDS011;10438;51.454;6.718;2022-09-09T04:42:50;8.43;;;1.70;;
20559;SDS011;10438;51.454;6.718;2022-09-09T04:45:16;7.10;;;1.80;;
20559;SDS011;10438;51.454;6.718;2022-09-09T04:47:41;5.85;;;1.70;;
20559;SDS011;10438;51.454;6.718;2022-09-09T04:50:07;7.53;;;1.60;;
20559;SDS011;10438;51.454;6.718;2022-09-09T04:52:34;12.23;;;2.33;;
20559;SDS011;10438;51.454;6.718;2022-09-09T04:55:00;9.10;;;2.25;;
20559;SDS011;10438;51.454;6.718;2022-09-09T04:57:26;8.45;;;2.50;;
20559;SDS011;10438;51.454;6.718;2022-09-09T04:59:53;11.32;;;2.83;;
20559;SDS011;10438;51.454;6.718;2022-09-09T05:02:19;8.90;;;2.05;;
20559;SDS011;10438;51.454;6.718;2022-09-09T05:04:44;11.95;;;2.17;;
20559;SDS011;10438;51.454;6.718;2022-09-09T05:07:10;9.77;;;1.95;;
20559;SDS011;10438;51.454;6.718;2022-09-09T05:09:36;9.27;;;1.83;;
20559;SDS011;10438;51.454;6.718;2022-09-09T05:12:01;10.10;;;2.17;;
20559;SDS011;10438;51.454;6.718;2022-09-09T05:14:27;13.85;;;2.28;;
20559;SDS011;10438;51.454;6.718;2022-09-09T05:16:54;7.40;;;1.67;;
20559;SDS011;10438;51.454;6.718;2022-09-09T05:19:20;9.80;;;2.25;;
20559;SDS011;10438;51.454;6.718;2022-09-09T05:21:46;13.80;;;1.85;;
20559;SDS011;10438;51.454;6.718;2022-09-09T05:24:12;10.50;;;2.13;;
20559;SDS011;10438;51.454;6.718;2022-09-09T05:26:37;14.93;;;5.28;;
20559;SDS011;10438;51.454;6.718;2022-09-09T05:29:03;7.72;;;1.90;;
20559;SDS011;10438;51.454;6.718;2022-09-09T05:31:29;10.25;;;2.60;;
20559;SDS011;10438;51.454;6.718;2022-09-09T05:33:55;8.10;;;1.88;;
20559;SDS011;10438;51.454;6.718;2022-09-09T05:36:21;9.88;;;2.05;;
20559;SDS011;10438;51.454;6.718;2022-09-09T05:38:48;7.55;;;2.25;;
20559;SDS011;10438;51.454;6.718;2022-09-09T05:41:15;11.25;;;2.45;;
20559;SDS011;10438;51.454;6.718;2022-09-09T05:43:42;13.30;;;2.00;;
20559;SDS011;10438;51.454;6.718;2022-09-09T05:46:14;11.45;;;2.50;;
20559;SDS011;10438;51.454;6.718;2022-09-09T05:48:47;9.57;;;1.95;;
20559;SDS011;10438;51.454;6.718;2022-09-09T05:51:17;8.32;;;2.10;;
20559;SDS011;10438;51.454;6.718;2022-09-09T05:53:49;13.88;;;2.55;;
20559;SDS011;10438;51.454;6.718;2022-09-09T05:56:22;9.93;;;1.90;;
20559;SDS011;10438;51.454;6.718;2022-09-09T05:58:53;14.23;;;2.17;;
20559;SDS011;10438;51.454;6.718;2022-09-09T06:01:20;12.15;;;3.00;;
20559;SDS011;10438;51.454;6.718;2022-09-09T06:03:47;9.00;;;1.70;;
20559;SDS011;10438;51.454;6.718;2022-09-09T06:06:16;10.55;;;2.08;;
20559;SDS011;10438;51.454;6.718;2022-09-09T06:08:46;6.88;;;1.83;;
20559;SDS011;10438;51.454;6.718;2022-09-09T06:11:14;12.45;;;2.00;;
20559;SDS011;10438;51.454;6.718;2022-09-09T06:13:41;13.63;;;2.05;;
20559;SDS011;10438;51.454;6.718;2022-09-09T06:16:08;9.73;;;2.35;;
20559;SDS011;10438;51.454;6.718;2022-09-09T06:18:36;7.53;;;2.10;;
20559;SDS011;10438;51.454;6.718;2022-09-09T06:21:03;9.95;;;1.90;;
20559;SDS011;10438;51.454;6.718;2022-09-09T06:23:31;8.40;;;1.75;;
20559;SDS011;10438;51.454;6.718;2022-09-09T06:26:40;5.97;;;1.70;;
20559;SDS011;10438;51.454;6.718;2022-09-09T06:28:49;7.88;;;1.65;;
20559;SDS011;10438;51.454;6.718;2022-09-09T06:31:17;10.52;;;1.67;;
20559;SDS011;10438;51.454;6.718;2022-09-09T06:33:47;13.80;;;1.92;;
20559;SDS011;10438;51.454;6.718;2022-09-09T06:36:15;15.18;;;1.80;;
20559;SDS011;10438;51.454;6.718;2022-09-09T06:38:43;8.05;;;1.92;;
20559;SDS011;10438;51.454;6.718;2022-09-09T06:41:10;7.85;;;1.73;;
20559;SDS011;10438;51.454;6.718;2022-09-09T06:43:37;11.32;;;2.45;;
20559;SDS011;10438;51.454;6.718;2022-09-09T06:46:04;12.52;;;1.88;;
20559;SDS011;10438;51.454;6.718;2022-09-09T06:48:38;10.55;;;2.00;;
20559;SDS011;10438;51.454;6.718;2022-09-09T06:51:12;8.80;;;2.00;;
20559;SDS011;10438;51.454;6.718;2022-09-09T06:53:46;9.85;;;2.72;;
20559;SDS011;10438;51.454;6.718;2022-09-09T06:58:58;7.15;;;1.80;;
20559;SDS011;10438;51.454;6.718;2022-09-09T07:01:28;10.07;;;1.42;;
20559;SDS011;10438;51.454;6.718;2022-09-09T07:03:55;7.53;;;2.22;;
20559;SDS011;10438;51.454;6.718;2022-09-09T07:06:24;10.10;;;1.90;;
20559;SDS011;10438;51.454;6.718;2022-09-09T07:08:56;9.35;;;2.00;;
20559;SDS011;10438;51.454;6.718;2022-09-09T07:11:25;9.52;;;2.05;;
20559;SDS011;10438;51.454;6.718;2022-09-09T07:13:54;9.68;;;1.65;;
20559;SDS011;10438;51.454;6.718;2022-09-09T07:16:22;9.73;;;1.88;;
20559;SDS011;10438;51.454;6.718;2022-09-09T07:18:52;10.50;;;1.55;;
20559;SDS011;10438;51.454;6.718;2022-09-09T07:21:22;7.90;;;1.67;;
20559;SDS011;10438;51.454;6.718;2022-09-09T07:23:49;7.53;;;1.58;;
20559;SDS011;10438;51.454;6.718;2022-09-09T07:26:19;11.23;;;1.55;;
20559;SDS011;10438;51.454;6.718;2022-09-09T07:28:47;8.07;;;1.83;;
20559;SDS011;10438;51.454;6.718;2022-09-09T07:31:18;7.05;;;1.67;;
20559;SDS011;10438;51.454;6.718;2022-09-09T07:33:51;8.05;;;1.38;;
20559;SDS011;10438;51.454;6.718;2022-09-09T07:36:19;8.18;;;1.35;;
20559;SDS011;10438;51.454;6.718;2022-09-09T07:38:53;11.48;;;1.67;;
20559;SDS011;10438;51.454;6.718;2022-09-09T07:41:24;8.07;;;1.58;;
20559;SDS011;10438;51.454;6.718;2022-09-09T07:43:52;6.85;;;1.33;;
20559;SDS011;10438;51.454;6.718;2022-09-09T07:46:21;5.65;;;1.40;;
20559;SDS011;10438;51.454;6.718;2022-09-09T07:48:49;10.45;;;1.50;;
20559;SDS011;10438;51.454;6.718;2022-09-09T07:51:18;14.80;;;1.77;;
20559;SDS011;10438;51.454;6.718;2022-09-09T07:53:47;7.40;;;1.40;;
20559;SDS011;10438;51.454;6.718;2022-09-09T07:56:16;7.03;;;1.35;;
20559;SDS011;10438;51.454;6.718;2022-09-09T07:58:46;9.15;;;1.30;;
20559;SDS011;10438;51.454;6.718;2022-09-09T08:01:13;14.00;;;1.70;;
20559;SDS011;10438;51.454;6.718;2022-09-09T08:03:44;11.05;;;1.70;;
20559;SDS011;10438;51.454;6.718;2022-09-09T08:06:11;5.78;;;1.70;;
20559;SDS011;10438;51.454;6.718;2022-09-09T08:08:38;9.02;;;1.83;;
20559;SDS011;10438;51.454;6.718;2022-09-09T08:11:07;7.75;;;1.63;;
20559;SDS011;10438;51.454;6.718;2022-09-09T08:13:35;11.30;;;1.30;;
20559;SDS011;10438;51.454;6.718;2022-09-09T08:16:05;12.10;;;1.77;;
20559;SDS011;10438;51.454;6.718;2022-09-09T08:18:32;7.10;;;1.67;;
20559;SDS011;10438;51.454;6.718;2022-09-09T08:21:04;7.50;;;1.58;;
20559;SDS011;10438;51.454;6.718;2022-09-09T08:23:34;8.60;;;1.40;;
20559;SDS011;10438;51.454;6.718;2022-09-09T08:29:03;6.40;;;1.20;;
20559;SDS011;10438;51.454;6.718;2022-09-09T08:31:32;7.85;;;1.25;;
20559;SDS011;10438;51.454;6.718;2022-09-09T08:34:00;8.82;;;1.55;;
20559;SDS011;10438;51.454;6.718;2022-09-09T08:36:28;4.43;;;1.25;;
20559;SDS011;10438;51.454;6.718;2022-09-09T08:38:56;8.45;;;1.42;;
20559;SDS011;10438;51.454;6.718;2022-09-09T08:49:39;7.18;;;1.20;;
20559;SDS011;10438;51.454;6.718;2022-09-09T08:52:23;11.85;;;1.30;;
20559;SDS011;10438;51.454;6.718;2022-09-09T08:54:56;5.68;;;1.30;;
20559;SDS011;10438;51.454;6.718;2022-09-09T08:57:30;7.47;;;1.48;;
20559;SDS011;10438;51.454;6.718;2022-09-09T08:59:57;7.60;;;1.30;;
20559;SDS011;10438;51.454;6.718;2022-09-09T09:05:33;6.00;;;1.20;;
20559;SDS011;10438;51.454;6.718;2022-09-09T09:08:15;6.63;;;1.10;;
20559;SDS011;10438;51.454;6.718;2022-09-09T09:10:47;8.50;;;1.27;;
20559;SDS011;10438;51.454;6.718;2022-09-09T09:13:42;7.85;;;1.58;;
20559;SDS011;10438;51.454;6.718;2022-09-09T09:18:59;6.75;;;1.17;;
20559;SDS011;10438;51.454;6.718;2022-09-09T09:21:39;7.65;;;1.20;;
20559;SDS011;10438;51.454;6.718;2022-09-09T09:24:16;6.07;;;1.50;;
20559;SDS011;10438;51.454;6.718;2022-09-09T09:26:45;6.90;;;1.50;;
20559;SDS011;10438;51.454;6.718;2022-09-09T09:29:12;5.45;;;1.10;;
20559;SDS011;10438;51.454;6.718;2022-09-09T09:31:41;7.35;;;0.93;;
20559;SDS011;10438;51.454;6.718;2022-09-09T09:34:20;9.85;;;1.40;;
20559;SDS011;10438;51.454;6.718;2022-09-09T09:36:52;7.50;;;1.20;;
20559;SDS011;10438;51.454;6.718;2022-09-09T09:39:23;3.47;;;1.25;;
20559;SDS011;10438;51.454;6.718;2022-09-09T09:41:49;11.05;;;1.67;;
20559;SDS011;10438;51.454;6.718;2022-09-09T09:47:13;9.48;;;1.80;;
20559;SDS011;10438;51.454;6.718;2022-09-09T09:49:52;2.78;;;0.85;;
20559;SDS011;10438;51.454;6.718;2022-09-09T09:52:28;6.80;;;1.20;;
20559;SDS011;10438;51.454;6.718;2022-09-09T09:54:56;6.85;;;1.70;;
20559;SDS011;10438;51.454;6.718;2022-09-09T09:57:26;7.45;;;1.15;;
20559;SDS011;10438;51.454;6.718;2022-09-09T10:03:00;7.78;;;1.50;;
20559;SDS011;10438;51.454;6.718;2022-09-09T10:05:27;5.45;;;1.17;;
20559;SDS011;10438;51.454;6.718;2022-09-09T10:08:01;7.70;;;1.33;;
20559;SDS011;10438;51.454;6.718;2022-09-09T10:10:34;10.20;;;1.13;;
20559;SDS011;10438;51.454;6.718;2022-09-09T10:16:13;6.68;;;1.20;;
20559;SDS011;10438;51.454;6.718;2022-09-09T10:18:58;8.02;;;1.58;;
20559;SDS011;10438;51.454;6.718;2022-09-09T10:21:43;6.70;;;0.80;;
20559;SDS011;10438;51.454;6.718;2022-09-09T10:24:22;5.80;;;0.98;;
20559;SDS011;10438;51.454;6.718;2022-09-09T10:29:44;4.75;;;1.05;;
20559;SDS011;10438;51.454;6.718;2022-09-09T10:38:34;6.93;;;1.02;;
20559;SDS011;10438;51.454;6.718;2022-09-09T10:50:11;4.95;;;1.13;;
20559;SDS011;10438;51.454;6.718;2022-09-09T10:52:56;4.85;;;1.13;;
20559;SDS011;10438;51.454;6.718;2022-09-09T10:55:53;6.97;;;1.00;;
20559;SDS011;10438;51.454;6.718;2022-09-09T10:59:02;6.78;;;1.10;;
20559;SDS011;10438;51.454;6.718;2022-09-09T11:01:21;6.80;;;0.98;;
20559;SDS011;10438;51.454;6.718;2022-09-09T11:04:38;4.25;;;0.90;;
20559;SDS011;10438;51.454;6.718;2022-09-09T11:06:47;6.38;;;0.98;;
20559;SDS011;10438;51.454;6.718;2022-09-09T11:09:18;4.93;;;0.82;;
20559;SDS011;10438;51.454;6.718;2022-09-09T11:11:52;5.40;;;0.93;;
20559;SDS011;10438;51.454;6.718;2022-09-09T11:17:10;5.57;;;0.90;;
20559;SDS011;10438;51.454;6.718;2022-09-09T11:19:40;8.15;;;1.00;;
20559;SDS011;10438;51.454;6.718;2022-09-09T11:22:15;4.90;;;0.73;;
20559;SDS011;10438;51.454;6.718;2022-09-09T11:25:10;5.00;;;0.95;;
20559;SDS011;10438;51.454;6.718;2022-09-09T11:30:18;11.15;;;1.40;;
20559;SDS011;10438;51.454;6.718;2022-09-09T11:35:30;6.85;;;0.90;;
20559;SDS011;10438;51.454;6.718;2022-09-09T11:40:54;4.32;;;1.10;;
20559;SDS011;10438;51.454;6.718;2022-09-09T11:43:41;6.40;;;1.27;;
20559;SDS011;10438;51.454;6.718;2022-09-09T11:46:18;5.10;;;1.02;;
20559;SDS011;10438;51.454;6.718;2022-09-09T11:49:05;7.63;;;1.02;;
20559;SDS011;10438;51.454;6.718;2022-09-09T11:51:48;4.57;;;0.77;;
20559;SDS011;10438;51.454;6.718;2022-09-09T11:54:28;5.25;;;1.42;;
20559;SDS011;10438;51.454;6.718;2022-09-09T11:57:00;4.80;;;1.00;;
20559;SDS011;10438;51.454;6.718;2022-09-09T11:59:30;4.82;;;0.80;;
20559;SDS011;10438;51.454;6.718;2022-09-09T12:06:53;4.22;;;1.02;;
20559;SDS011;10438;51.454;6.718;2022-09-09T12:10:05;6.78;;;1.27;;
20559;SDS011;10438;51.454;6.718;2022-09-09T12:12:30;4.20;;;1.13;;
20559;SDS011;10438;51.454;6.718;2022-09-09T12:15:02;5.90;;;1.23;;
20559;SDS011;10438;51.454;6.718;2022-09-09T12:17:31;6.95;;;1.52;;
20559;SDS011;10438;51.454;6.718;2022-09-09T12:20:17;5.10;;;0.95;;
20559;SDS011;10438;51.454;6.718;2022-09-09T12:25:25;3.03;;;0.50;;
20559;SDS011;10438;51.454;6.718;2022-09-09T12:31:21;8.85;;;2.60;;
20559;SDS011;10438;51.454;6.718;2022-09-09T12:33:33;5.50;;;1.17;;
20559;SDS011;10438;51.454;6.718;2022-09-09T12:36:00;2.90;;;0.95;;
20559;SDS011;10438;51.454;6.718;2022-09-09T12:38:34;6.82;;;0.68;;
20559;SDS011;10438;51.454;6.718;2022-09-09T12:41:02;4.95;;;1.60;;
20559;SDS011;10438;51.454;6.718;2022-09-09T12:43:28;7.55;;;1.90;;
20559;SDS011;10438;51.454;6.718;2022-09-09T12:45:55;9.90;;;1.70;;
20559;SDS011;10438;51.454;6.718;2022-09-09T12:48:30;7.88;;;2.83;;
20559;SDS011;10438;51.454;6.718;2022-09-09T12:51:01;5.78;;;1.80;;
20559;SDS011;10438;51.454;6.718;2022-09-09T12:53:31;6.95;;;1.20;;
20559;SDS011;10438;51.454;6.718;2022-09-09T12:56:03;5.72;;;1.38;;
20559;SDS011;10438;51.454;6.718;2022-09-09T12:58:32;6.72;;;1.15;;
20559;SDS011;10438;51.454;6.718;2022-09-09T13:00:59;4.63;;;1.20;;
20559;SDS011;10438;51.454;6.718;2022-09-09T13:03:30;8.13;;;1.40;;
20559;SDS011;10438;51.454;6.718;2022-09-09T13:06:10;9.15;;;1.38;;
20559;SDS011;10438;51.454;6.718;2022-09-09T13:08:37;5.22;;;0.93;;
20559;SDS011;10438;51.454;6.718;2022-09-09T13:11:04;7.30;;;1.10;;
20559;SDS011;10438;51.454;6.718;2022-09-09T13:13:38;4.60;;;1.10;;
20559;SDS011;10438;51.454;6.718;2022-09-09T13:16:06;3.15;;;0.80;;
20559;SDS011;10438;51.454;6.718;2022-09-09T13:18:45;4.30;;;0.80;;
20559;SDS011;10438;51.454;6.718;2022-09-09T13:21:11;4.85;;;1.00;;
20559;SDS011;10438;51.454;6.718;2022-09-09T13:23:38;4.60;;;0.88;;
20559;SDS011;10438;51.454;6.718;2022-09-09T13:26:05;4.68;;;1.00;;
20559;SDS011;10438;51.454;6.718;2022-09-09T13:28:51;4.63;;;0.90;;
20559;SDS011;10438;51.454;6.718;2022-09-09T13:31:29;4.82;;;0.85;;
20559;SDS011;10438;51.454;6.718;2022-09-09T13:33:56;8.82;;;1.23;;
20559;SDS011;10438;51.454;6.718;2022-09-09T13:36:32;6.38;;;1.00;;
20559;SDS011;10438;51.454;6.718;2022-09-09T13:39:00;3.72;;;1.10;;
20559;SDS011;10438;51.454;6.718;2022-09-09T13:41:42;6.18;;;1.10;;
20559;SDS011;10438;51.454;6.718;2022-09-09T13:44:24;4.78;;;1.33;;
20559;SDS011;10438;51.454;6.718;2022-09-09T13:49:31;6.63;;;1.30;;
20559;SDS011;10438;51.454;6.718;2022-09-09T13:52:31;6.53;;;1.70;;
20559;SDS011;10438;51.454;6.718;2022-09-09T13:54:52;5.72;;;1.58;;
20559;SDS011;10438;51.454;6.718;2022-09-09T13:57:20;5.82;;;1.10;;
20559;SDS011;10438;51.454;6.718;2022-09-09T13:59:47;6.65;;;1.20;;
20559;SDS011;10438;51.454;6.718;2022-09-09T14:02:13;2.90;;;0.85;;
20559;SDS011;10438;51.454;6.718;2022-09-09T14:04:42;4.80;;;0.90;;
20559;SDS011;10438;51.454;6.718;2022-09-09T14:07:09;3.28;;;0.90;;
20559;SDS011;10438;51.454;6.718;2022-09-09T14:09:37;4.43;;;1.00;;
20559;SDS011;10438;51.454;6.718;2022-09-09T14:12:04;4.47;;;0.93;;
20559;SDS011;10438;51.454;6.718;2022-09-09T14:14:30;6.82;;;1.10;;
20559;SDS011;10438;51.454;6.718;2022-09-09T14:16:55;7.47;;;1.30;;
20559;SDS011;10438;51.454;6.718;2022-09-09T14:19:21;4.75;;;0.80;;
20559;SDS011;10438;51.454;6.718;2022-09-09T14:21:46;3.08;;;1.00;;
20559;SDS011;10438;51.454;6.718;2022-09-09T14:24:12;4.38;;;1.15;;
20559;SDS011;10438;51.454;6.718;2022-09-09T14:26:37;5.30;;;1.10;;
20559;SDS011;10438;51.454;6.718;2022-09-09T14:29:03;7.97;;;1.00;;
20559;SDS011;10438;51.454;6.718;2022-09-09T14:31:28;11.95;;;3.05;;
20559;SDS011;10438;51.454;6.718;2022-09-09T14:33:54;10.35;;;3.40;;
20559;SDS011;10438;51.454;6.718;2022-09-09T14:36:20;7.75;;;1.63;;
20559;SDS011;10438;51.454;6.718;2022-09-09T14:38:45;4.10;;;0.82;;
20559;SDS011;10438;51.454;6.718;2022-09-09T14:41:12;1.48;;;0.50;;
20559;SDS011;10438;51.454;6.718;2022-09-09T14:43:44;2.03;;;0.85;;
20559;SDS011;10438;51.454;6.718;2022-09-09T14:46:11;1.77;;;0.30;;
20559;SDS011;10438;51.454;6.718;2022-09-09T14:48:38;2.13;;;0.38;;
20559;SDS011;10438;51.454;6.718;2022-09-09T14:51:09;1.95;;;0.40;;
20559;SDS011;10438;51.454;6.718;2022-09-09T14:53:34;1.55;;;0.50;;
20559;SDS011;10438;51.454;6.718;2022-09-09T14:56:07;4.50;;;1.10;;
20559;SDS011;10438;51.454;6.718;2022-09-09T14:58:37;8.88;;;1.10;;
20559;SDS011;10438;51.454;6.718;2022-09-09T15:01:07;3.53;;;1.13;;
20559;SDS011;10438;51.454;6.718;2022-09-09T15:03:41;3.60;;;0.93;;
20559;SDS011;10438;51.454;6.718;2022-09-09T15:06:11;6.47;;;1.30;;
20559;SDS011;10438;51.454;6.718;2022-09-09T15:08:40;6.70;;;1.20;;
20559;SDS011;10438;51.454;6.718;2022-09-09T15:11:07;4.65;;;0.80;;
20559;SDS011;10438;51.454;6.718;2022-09-09T15:13:34;3.00;;;0.70;;
20559;SDS011;10438;51.454;6.718;2022-09-09T15:16:06;7.93;;;1.20;;
20559;SDS011;10438;51.454;6.718;2022-09-09T15:18:33;3.10;;;1.08;;
20559;SDS011;10438;51.454;6.718;2022-09-09T15:21:00;5.57;;;1.25;;
20559;SDS011;10438;51.454;6.718;2022-09-09T15:23:28;6.22;;;1.10;;
20559;SDS011;10438;51.454;6.718;2022-09-09T15:25:56;3.55;;;1.00;;
20559;SDS011;10438;51.454;6.718;2022-09-09T15:28:21;5.28;;;1.35;;
20559;SDS011;10438;51.454;6.718;2022-09-09T15:30:48;3.95;;;1.20;;
20559;SDS011;10438;51.454;6.718;2022-09-09T15:33:14;4.25;;;1.23;;
20559;SDS011;10438;51.454;6.718;2022-09-09T15:35:40;6.03;;;1.20;;
20559;SDS011;10438;51.454;6.718;2022-09-09T15:38:05;3.97;;;0.93;;
20559;SDS011;10438;51.454;6.718;2022-09-09T15:40:31;2.78;;;0.80;;
20559;SDS011;10438;51.454;6.718;2022-09-09T15:42:59;2.80;;;0.85;;
20559;SDS011;10438;51.454;6.718;2022-09-09T15:45:25;7.03;;;0.90;;
20559;SDS011;10438;51.454;6.718;2022-09-09T15:47:51;6.85;;;1.85;;
20559;SDS011;10438;51.454;6.718;2022-09-09T15:50:17;2.75;;;0.73;;
20559;SDS011;10438;51.454;6.718;2022-09-09T15:52:43;2.75;;;0.63;;
20559;SDS011;10438;51.454;6.718;2022-09-09T15:55:09;3.08;;;0.70;;
20559;SDS011;10438;51.454;6.718;2022-09-09T15:57:35;3.17;;;1.10;;
20559;SDS011;10438;51.454;6.718;2022-09-09T16:00:01;3.33;;;1.00;;
20559;SDS011;10438;51.454;6.718;2022-09-09T16:02:29;4.68;;;1.45;;
20559;SDS011;10438;51.454;6.718;2022-09-09T16:04:55;6.90;;;1.52;;
20559;SDS011;10438;51.454;6.718;2022-09-09T16:07:22;6.18;;;2.15;;
20559;SDS011;10438;51.454;6.718;2022-09-09T16:09:48;6.15;;;1.60;;
20559;SDS011;10438;51.454;6.718;2022-09-09T16:12:16;7.28;;;1.50;;
20559;SDS011;10438;51.454;6.718;2022-09-09T16:14:42;4.93;;;1.35;;
20559;SDS011;10438;51.454;6.718;2022-09-09T16:17:07;5.10;;;1.00;;
20559;SDS011;10438;51.454;6.718;2022-09-09T16:19:34;2.50;;;0.75;;
20559;SDS011;10438;51.454;6.718;2022-09-09T16:22:00;3.08;;;0.65;;
20559;SDS011;10438;51.454;6.718;2022-09-09T16:24:26;5.10;;;1.10;;
20559;SDS011;10438;51.454;6.718;2022-09-09T16:26:52;5.18;;;0.85;;
20559;SDS011;10438;51.454;6.718;2022-09-09T16:29:19;3.85;;;0.80;;
20559;SDS011;10438;51.454;6.718;2022-09-09T16:31:47;2.28;;;0.70;;
20559;SDS011;10438;51.454;6.718;2022-09-09T16:34:14;2.42;;;0.70;;
20559;SDS011;10438;51.454;6.718;2022-09-09T16:36:41;3.72;;;0.80;;
20559;SDS011;10438;51.454;6.718;2022-09-09T16:39:08;5.10;;;1.08;;
20559;SDS011;10438;51.454;6.718;2022-09-09T16:41:36;3.67;;;0.80;;
20559;SDS011;10438;51.454;6.718;2022-09-09T16:44:04;4.22;;;1.00;;
20559;SDS011;10438;51.454;6.718;2022-09-09T16:46:32;4.75;;;0.85;;
20559;SDS011;10438;51.454;6.718;2022-09-09T16:49:01;4.88;;;1.20;;
20559;SDS011;10438;51.454;6.718;2022-09-09T16:51:29;9.25;;;1.20;;
20559;SDS011;10438;51.454;6.718;2022-09-09T16:54:00;5.03;;;1.42;;
20559;SDS011;10438;51.454;6.718;2022-09-09T16:56:29;5.68;;;1.10;;
20559;SDS011;10438;51.454;6.718;2022-09-09T16:58:58;9.38;;;1.10;;
20559;SDS011;10438;51.454;6.718;2022-09-09T17:01:27;5.15;;;1.50;;